sensor_id;sensor_type;location;lat;lon;timestamp;P1;durP1;ratioP1;P2;durP2;ratioP2
64643;SDS011;51056;50.330;7.914;2023-01-01T00:01:30;9.50;;;8.18;;
64643;SDS011;51056;50.330;7.914;2023-01-01T00:04:35;11.20;;;8.85;;
64643;SDS011;51056;50.330;7.914;2023-01-01T00:07:38;19.30;;;11.73;;
64643;SDS011;51056;50.330;7.914;2023-01-01T00:10:42;17.20;;;11.27;;
64643;SDS011;51056;50.330;7.914;2023-01-01T00:17:05;13.45;;;8.85;;
64643;SDS011;51056;50.330;7.914;2023-01-01T00:20:10;10.20;;;5.43;;
64643;SDS011;51056;50.330;7.914;2023-01-01T00:23:14;9.65;;;4.75;;
64643;SDS011;51056;50.330;7.914;2023-01-01T00:26:17;10.18;;;3.60;;
64643;SDS011;51056;50.330;7.914;2023-01-01T00:29:28;7.47;;;3.47;;
64643;SDS011;51056;50.330;7.914;2023-01-01T00:32:31;7.97;;;4.70;;
64643;SDS011;51056;50.330;7.914;2023-01-01T00:35:34;9.63;;;4.25;;
64643;SDS011;51056;50.330;7.914;2023-01-01T00:41:41;12.18;;;4.45;;
64643;SDS011;51056;50.330;7.914;2023-01-01T00:47:49;13.13;;;4.30;;
64643;SDS011;51056;50.330;7.914;2023-01-01T00:50:53;8.35;;;4.18;;
64643;SDS011;51056;50.330;7.914;2023-01-01T00:53:57;11.93;;;4.65;;
64643;SDS011;51056;50.330;7.914;2023-01-01T00:57:00;9.07;;;3.85;;
64643;SDS011;51056;50.330;7.914;2023-01-01T01:03:09;6.57;;;3.95;;
64643;SDS011;51056;50.330;7.914;2023-01-01T01:06:14;10.98;;;3.65;;
64643;SDS011;51056;50.330;7.914;2023-01-01T01:09:18;10.13;;;3.95;;
64643;SDS011;51056;50.330;7.914;2023-01-01T01:15:24;10.02;;;3.53;;
64643;SDS011;51056;50.330;7.914;2023-01-01T01:18:28;9.80;;;3.70;;
64643;SDS011;51056;50.330;7.914;2023-01-01T01:24:36;11.80;;;3.45;;
64643;SDS011;51056;50.330;7.914;2023-01-01T01:27:39;9.75;;;3.05;;
64643;SDS011;51056;50.330;7.914;2023-01-01T01:30:43;7.55;;;2.92;;
64643;SDS011;51056;50.330;7.914;2023-01-01T01:33:46;7.95;;;3.85;;
64643;SDS011;51056;50.330;7.914;2023-01-01T01:36:50;7.43;;;3.33;;
64643;SDS011;51056;50.330;7.914;2023-01-01T01:39:55;13.55;;;5.40;;
64643;SDS011;51056;50.330;7.914;2023-01-01T01:42:59;8.75;;;3.97;;
64643;SDS011;51056;50.330;7.914;2023-01-01T01:46:13;7.97;;;3.95;;
64643;SDS011;51056;50.330;7.914;2023-01-01T01:49:25;5.45;;;3.13;;
64643;SDS011;51056;50.330;7.914;2023-01-01T01:52:32;8.90;;;4.72;;
64643;SDS011;51056;50.330;7.914;2023-01-01T01:55:47;9.05;;;4.30;;
64643;SDS011;51056;50.330;7.914;2023-01-01T01:59:12;7.40;;;4.00;;
64643;SDS011;51056;50.330;7.914;2023-01-01T02:02:35;9.40;;;4.03;;
64643;SDS011;51056;50.330;7.914;2023-01-01T02:05:48;6.22;;;3.80;;
64643;SDS011;51056;50.330;7.914;2023-01-01T02:08:56;7.22;;;3.70;;
64643;SDS011;51056;50.330;7.914;2023-01-01T02:12:02;8.07;;;5.93;;
64643;SDS011;51056;50.330;7.914;2023-01-01T02:15:05;9.55;;;5.28;;
64643;SDS011;51056;50.330;7.914;2023-01-01T02:18:10;10.02;;;6.55;;
64643;SDS011;51056;50.330;7.914;2023-01-01T02:21:19;8.07;;;5.85;;
64643;SDS011;51056;50.330;7.914;2023-01-01T02:28:14;8.88;;;6.07;;
64643;SDS011;51056;50.330;7.914;2023-01-01T02:31:27;10.32;;;7.13;;
64643;SDS011;51056;50.330;7.914;2023-01-01T02:34:40;10.52;;;6.93;;
64643;SDS011;51056;50.330;7.914;2023-01-01T02:40:55;11.02;;;7.35;;
64643;SDS011;51056;50.330;7.914;2023-01-01T02:44:03;10.13;;;7.45;;
64643;SDS011;51056;50.330;7.914;2023-01-01T02:47:08;14.77;;;8.60;;
64643;SDS011;51056;50.330;7.914;2023-01-01T02:50:14;11.40;;;8.77;;
64643;SDS011;51056;50.330;7.914;2023-01-01T02:53:29;11.90;;;7.57;;
64643;SDS011;51056;50.330;7.914;2023-01-01T03:03:34;12.48;;;8.82;;
64643;SDS011;51056;50.330;7.914;2023-01-01T03:06:46;13.77;;;9.40;;
64643;SDS011;51056;50.330;7.914;2023-01-01T03:09:54;11.82;;;8.70;;
64643;SDS011;51056;50.330;7.914;2023-01-01T03:16:39;13.93;;;8.98;;
64643;SDS011;51056;50.330;7.914;2023-01-01T03:20:18;14.77;;;10.40;;
64643;SDS011;51056;50.330;7.914;2023-01-01T03:23:25;13.98;;;9.73;;
64643;SDS011;51056;50.330;7.914;2023-01-01T03:26:34;11.82;;;9.10;;
64643;SDS011;51056;50.330;7.914;2023-01-01T03:29:39;14.32;;;8.95;;
64643;SDS011;51056;50.330;7.914;2023-01-01T03:36:11;19.75;;;13.95;;
64643;SDS011;51056;50.330;7.914;2023-01-01T03:39:23;15.35;;;11.20;;
64643;SDS011;51056;50.330;7.914;2023-01-01T03:45:42;18.75;;;12.18;;
64643;SDS011;51056;50.330;7.914;2023-01-01T03:48:49;20.33;;;11.13;;
64643;SDS011;51056;50.330;7.914;2023-01-01T03:55:31;15.98;;;10.35;;
64643;SDS011;51056;50.330;7.914;2023-01-01T03:59:22;14.52;;;9.30;;
64643;SDS011;51056;50.330;7.914;2023-01-01T04:02:25;21.33;;;13.43;;
64643;SDS011;51056;50.330;7.914;2023-01-01T04:05:38;17.90;;;11.88;;
64643;SDS011;51056;50.330;7.914;2023-01-01T04:08:44;17.25;;;10.50;;
64643;SDS011;51056;50.330;7.914;2023-01-01T04:11:48;16.95;;;10.57;;
64643;SDS011;51056;50.330;7.914;2023-01-01T04:15:03;15.27;;;10.30;;
64643;SDS011;51056;50.330;7.914;2023-01-01T04:18:08;11.73;;;9.70;;
64643;SDS011;51056;50.330;7.914;2023-01-01T04:21:11;14.43;;;11.40;;
64643;SDS011;51056;50.330;7.914;2023-01-01T04:27:17;17.15;;;10.48;;
64643;SDS011;51056;50.330;7.914;2023-01-01T04:30:21;16.88;;;9.25;;
64643;SDS011;51056;50.330;7.914;2023-01-01T04:36:27;15.27;;;10.70;;
64643;SDS011;51056;50.330;7.914;2023-01-01T04:39:31;17.45;;;10.60;;
64643;SDS011;51056;50.330;7.914;2023-01-01T04:42:34;11.52;;;9.48;;
64643;SDS011;51056;50.330;7.914;2023-01-01T04:45:38;13.02;;;8.82;;
64643;SDS011;51056;50.330;7.914;2023-01-01T04:49:36;13.60;;;8.65;;
64643;SDS011;51056;50.330;7.914;2023-01-01T04:56:18;16.02;;;10.88;;
64643;SDS011;51056;50.330;7.914;2023-01-01T04:59:23;13.55;;;8.20;;
64643;SDS011;51056;50.330;7.914;2023-01-01T05:02:26;12.95;;;7.80;;
64643;SDS011;51056;50.330;7.914;2023-01-01T05:05:31;12.15;;;7.55;;
64643;SDS011;51056;50.330;7.914;2023-01-01T05:08:36;12.77;;;7.30;;
64643;SDS011;51056;50.330;7.914;2023-01-01T05:11:41;10.18;;;6.50;;
64643;SDS011;51056;50.330;7.914;2023-01-01T05:17:47;10.68;;;5.70;;
64643;SDS011;51056;50.330;7.914;2023-01-01T05:23:57;9.80;;;5.77;;
64643;SDS011;51056;50.330;7.914;2023-01-01T05:27:03;8.30;;;5.35;;
64643;SDS011;51056;50.330;7.914;2023-01-01T05:33:10;9.02;;;4.95;;
64643;SDS011;51056;50.330;7.914;2023-01-01T05:36:19;10.07;;;5.22;;
64643;SDS011;51056;50.330;7.914;2023-01-01T05:39:26;10.75;;;3.97;;
64643;SDS011;51056;50.330;7.914;2023-01-01T05:42:30;8.65;;;4.72;;
64643;SDS011;51056;50.330;7.914;2023-01-01T05:48:36;13.07;;;4.10;;
64643;SDS011;51056;50.330;7.914;2023-01-01T05:51:41;6.70;;;3.20;;
64643;SDS011;51056;50.330;7.914;2023-01-01T05:54:44;6.43;;;3.05;;
64643;SDS011;51056;50.330;7.914;2023-01-01T05:57:48;6.07;;;3.42;;
64643;SDS011;51056;50.330;7.914;2023-01-01T06:00:51;6.68;;;3.15;;
64643;SDS011;51056;50.330;7.914;2023-01-01T06:03:55;9.60;;;3.03;;
64643;SDS011;51056;50.330;7.914;2023-01-01T06:07:00;11.30;;;2.80;;
64643;SDS011;51056;50.330;7.914;2023-01-01T06:13:07;8.00;;;3.65;;
64643;SDS011;51056;50.330;7.914;2023-01-01T06:16:10;7.55;;;4.45;;
64643;SDS011;51056;50.330;7.914;2023-01-01T06:19:14;7.13;;;4.32;;
64643;SDS011;51056;50.330;7.914;2023-01-01T06:22:18;11.68;;;4.93;;
64643;SDS011;51056;50.330;7.914;2023-01-01T06:25:21;8.88;;;4.95;;
64643;SDS011;51056;50.330;7.914;2023-01-01T06:28:24;7.65;;;4.68;;
64643;SDS011;51056;50.330;7.914;2023-01-01T06:31:28;11.07;;;4.13;;
64643;SDS011;51056;50.330;7.914;2023-01-01T06:34:32;8.32;;;4.30;;
64643;SDS011;51056;50.330;7.914;2023-01-01T06:37:36;7.65;;;3.28;;
64643;SDS011;51056;50.330;7.914;2023-01-01T06:40:40;4.97;;;2.65;;
64643;SDS011;51056;50.330;7.914;2023-01-01T06:43:43;8.10;;;2.92;;
64643;SDS011;51056;50.330;7.914;2023-01-01T06:46:47;8.60;;;2.53;;
64643;SDS011;51056;50.330;7.914;2023-01-01T06:52:54;8.93;;;2.50;;
64643;SDS011;51056;50.330;7.914;2023-01-01T06:55:57;5.93;;;2.25;;
64643;SDS011;51056;50.330;7.914;2023-01-01T06:59:00;6.55;;;2.72;;
64643;SDS011;51056;50.330;7.914;2023-01-01T07:02:03;6.78;;;2.35;;
64643;SDS011;51056;50.330;7.914;2023-01-01T07:08:10;4.80;;;2.30;;
64643;SDS011;51056;50.330;7.914;2023-01-01T07:11:13;6.90;;;1.85;;
64643;SDS011;51056;50.330;7.914;2023-01-01T07:14:17;4.78;;;2.05;;
64643;SDS011;51056;50.330;7.914;2023-01-01T07:17:20;6.63;;;2.83;;
64643;SDS011;51056;50.330;7.914;2023-01-01T07:20:24;8.43;;;4.40;;
64643;SDS011;51056;50.330;7.914;2023-01-01T07:23:27;7.80;;;2.97;;
64643;SDS011;51056;50.330;7.914;2023-01-01T07:26:32;8.98;;;3.35;;
64643;SDS011;51056;50.330;7.914;2023-01-01T07:29:36;4.35;;;2.35;;
64643;SDS011;51056;50.330;7.914;2023-01-01T07:32:40;5.97;;;2.63;;
64643;SDS011;51056;50.330;7.914;2023-01-01T07:35:43;7.47;;;2.75;;
64643;SDS011;51056;50.330;7.914;2023-01-01T07:38:47;12.95;;;4.30;;
64643;SDS011;51056;50.330;7.914;2023-01-01T07:41:51;11.45;;;6.35;;
64643;SDS011;51056;50.330;7.914;2023-01-01T07:44:54;10.20;;;4.15;;
64643;SDS011;51056;50.330;7.914;2023-01-01T07:47:58;9.43;;;3.03;;
64643;SDS011;51056;50.330;7.914;2023-01-01T07:51:02;11.43;;;3.40;;
64643;SDS011;51056;50.330;7.914;2023-01-01T07:57:09;14.00;;;8.40;;
64643;SDS011;51056;50.330;7.914;2023-01-01T08:00:14;10.00;;;6.57;;
64643;SDS011;51056;50.330;7.914;2023-01-01T08:03:19;7.82;;;5.38;;
64643;SDS011;51056;50.330;7.914;2023-01-01T08:06:23;10.27;;;5.25;;
64643;SDS011;51056;50.330;7.914;2023-01-01T08:13:35;8.95;;;4.75;;
64643;SDS011;51056;50.330;7.914;2023-01-01T08:16:39;10.25;;;5.43;;
64643;SDS011;51056;50.330;7.914;2023-01-01T08:19:42;12.02;;;5.35;;
64643;SDS011;51056;50.330;7.914;2023-01-01T08:22:51;10.02;;;5.45;;
64643;SDS011;51056;50.330;7.914;2023-01-01T08:26:00;7.10;;;4.45;;
64643;SDS011;51056;50.330;7.914;2023-01-01T08:29:04;6.53;;;3.72;;
64643;SDS011;51056;50.330;7.914;2023-01-01T08:32:14;5.35;;;2.70;;
64643;SDS011;51056;50.330;7.914;2023-01-01T08:35:18;7.80;;;2.42;;
64643;SDS011;51056;50.330;7.914;2023-01-01T08:51:10;8.00;;;2.63;;
64643;SDS011;51056;50.330;7.914;2023-01-01T08:54:14;4.65;;;2.33;;
64643;SDS011;51056;50.330;7.914;2023-01-01T08:57:23;7.70;;;2.90;;
64643;SDS011;51056;50.330;7.914;2023-01-01T09:00:27;8.70;;;2.85;;
64643;SDS011;51056;50.330;7.914;2023-01-01T09:03:35;7.15;;;3.08;;
64643;SDS011;51056;50.330;7.914;2023-01-01T09:06:46;7.70;;;3.70;;
64643;SDS011;51056;50.330;7.914;2023-01-01T09:10:03;8.80;;;2.95;;
64643;SDS011;51056;50.330;7.914;2023-01-01T09:13:14;8.38;;;3.30;;
64643;SDS011;51056;50.330;7.914;2023-01-01T09:16:21;6.70;;;2.88;;
64643;SDS011;51056;50.330;7.914;2023-01-01T09:19:27;4.20;;;2.25;;
64643;SDS011;51056;50.330;7.914;2023-01-01T09:22:32;10.73;;;2.78;;
64643;SDS011;51056;50.330;7.914;2023-01-01T09:25:38;8.25;;;2.17;;
64643;SDS011;51056;50.330;7.914;2023-01-01T09:28:43;5.85;;;2.35;;
64643;SDS011;51056;50.330;7.914;2023-01-01T09:31:47;5.22;;;2.08;;
64643;SDS011;51056;50.330;7.914;2023-01-01T09:34:53;7.95;;;2.30;;
64643;SDS011;51056;50.330;7.914;2023-01-01T09:38:01;7.55;;;1.90;;
64643;SDS011;51056;50.330;7.914;2023-01-01T09:48:21;9.40;;;2.45;;
64643;SDS011;51056;50.330;7.914;2023-01-01T09:51:29;7.05;;;2.65;;
64643;SDS011;51056;50.330;7.914;2023-01-01T09:55:03;9.90;;;2.88;;
64643;SDS011;51056;50.330;7.914;2023-01-01T09:58:20;8.43;;;2.47;;
64643;SDS011;51056;50.330;7.914;2023-01-01T10:08:30;9.70;;;3.47;;
64643;SDS011;51056;50.330;7.914;2023-01-01T10:15:15;13.60;;;4.32;;
64643;SDS011;51056;50.330;7.914;2023-01-01T10:18:26;10.50;;;5.60;;
64643;SDS011;51056;50.330;7.914;2023-01-01T10:21:36;13.82;;;4.40;;
64643;SDS011;51056;50.330;7.914;2023-01-01T10:28:50;7.07;;;2.60;;
64643;SDS011;51056;50.330;7.914;2023-01-01T10:31:58;8.52;;;2.25;;
64643;SDS011;51056;50.330;7.914;2023-01-01T10:38:42;7.50;;;2.03;;
64643;SDS011;51056;50.330;7.914;2023-01-01T10:41:46;8.57;;;2.83;;
64643;SDS011;51056;50.330;7.914;2023-01-01T10:44:56;7.45;;;3.40;;
64643;SDS011;51056;50.330;7.914;2023-01-01T10:48:14;7.93;;;3.17;;
64643;SDS011;51056;50.330;7.914;2023-01-01T10:51:57;7.30;;;3.13;;
64643;SDS011;51056;50.330;7.914;2023-01-01T10:58:33;10.45;;;4.40;;
64643;SDS011;51056;50.330;7.914;2023-01-01T11:05:39;8.82;;;3.40;;
64643;SDS011;51056;50.330;7.914;2023-01-01T11:12:37;7.85;;;5.82;;
64643;SDS011;51056;50.330;7.914;2023-01-01T11:15:59;9.18;;;2.67;;
64643;SDS011;51056;50.330;7.914;2023-01-01T11:19:06;8.50;;;2.53;;
64643;SDS011;51056;50.330;7.914;2023-01-01T11:31:11;9.18;;;3.13;;
64643;SDS011;51056;50.330;7.914;2023-01-01T11:34:38;5.80;;;2.15;;
64643;SDS011;51056;50.330;7.914;2023-01-01T11:41:59;9.32;;;2.63;;
64643;SDS011;51056;50.330;7.914;2023-01-01T11:50:00;7.60;;;2.15;;
64643;SDS011;51056;50.330;7.914;2023-01-01T11:53:40;10.52;;;3.22;;
64643;SDS011;51056;50.330;7.914;2023-01-01T11:56:48;6.85;;;2.25;;
64643;SDS011;51056;50.330;7.914;2023-01-01T12:00:03;8.55;;;2.17;;
64643;SDS011;51056;50.330;7.914;2023-01-01T12:03:31;9.40;;;2.10;;
64643;SDS011;51056;50.330;7.914;2023-01-01T12:06:52;7.50;;;1.70;;
64643;SDS011;51056;50.330;7.914;2023-01-01T12:10:03;6.07;;;2.38;;
64643;SDS011;51056;50.330;7.914;2023-01-01T12:13:17;6.03;;;1.77;;
64643;SDS011;51056;50.330;7.914;2023-01-01T12:17:02;6.35;;;2.67;;
64643;SDS011;51056;50.330;7.914;2023-01-01T12:23:42;7.43;;;2.17;;
64643;SDS011;51056;50.330;7.914;2023-01-01T12:30:21;14.15;;;9.80;;
64643;SDS011;51056;50.330;7.914;2023-01-01T12:33:33;9.43;;;3.42;;
64643;SDS011;51056;50.330;7.914;2023-01-01T12:40:25;7.13;;;1.92;;
64643;SDS011;51056;50.330;7.914;2023-01-01T12:59:00;11.52;;;5.95;;
64643;SDS011;51056;50.330;7.914;2023-01-01T13:07:58;11.75;;;3.50;;
64643;SDS011;51056;50.330;7.914;2023-01-01T13:11:14;9.05;;;3.00;;
64643;SDS011;51056;50.330;7.914;2023-01-01T13:14:24;9.48;;;2.78;;
64643;SDS011;51056;50.330;7.914;2023-01-01T13:17:32;7.63;;;2.42;;
64643;SDS011;51056;50.330;7.914;2023-01-01T13:24:16;7.30;;;1.98;;
64643;SDS011;51056;50.330;7.914;2023-01-01T13:31:13;9.25;;;3.22;;
64643;SDS011;51056;50.330;7.914;2023-01-01T13:35:13;6.53;;;1.85;;
64643;SDS011;51056;50.330;7.914;2023-01-01T13:43:04;8.82;;;4.32;;
64643;SDS011;51056;50.330;7.914;2023-01-01T14:09:26;7.60;;;2.17;;
64643;SDS011;51056;50.330;7.914;2023-01-01T14:12:43;7.35;;;2.47;;
64643;SDS011;51056;50.330;7.914;2023-01-01T14:17:04;6.07;;;2.00;;
64643;SDS011;51056;50.330;7.914;2023-01-01T14:20:21;7.75;;;2.05;;
64643;SDS011;51056;50.330;7.914;2023-01-01T14:33:20;6.60;;;2.40;;
64643;SDS011;51056;50.330;7.914;2023-01-01T14:44:43;8.00;;;1.92;;
64643;SDS011;51056;50.330;7.914;2023-01-01T14:52:34;7.70;;;2.15;;
64643;SDS011;51056;50.330;7.914;2023-01-01T14:55:51;6.20;;;2.10;;
64643;SDS011;51056;50.330;7.914;2023-01-01T15:04:16;9.35;;;2.22;;
64643;SDS011;51056;50.330;7.914;2023-01-01T15:16:33;8.50;;;3.97;;
64643;SDS011;51056;50.330;7.914;2023-01-01T15:28:51;13.35;;;3.97;;
64643;SDS011;51056;50.330;7.914;2023-01-01T15:32:08;13.38;;;3.40;;
64643;SDS011;51056;50.330;7.914;2023-01-01T16:19:16;11.88;;;7.15;;
64643;SDS011;51056;50.330;7.914;2023-01-01T16:26:41;26.15;;;18.88;;
64643;SDS011;51056;50.330;7.914;2023-01-01T16:30:17;23.58;;;16.63;;
64643;SDS011;51056;50.330;7.914;2023-01-01T16:33:36;21.67;;;10.90;;
64643;SDS011;51056;50.330;7.914;2023-01-01T16:44:54;13.13;;;6.88;;
64643;SDS011;51056;50.330;7.914;2023-01-01T16:47:58;24.38;;;11.52;;
64643;SDS011;51056;50.330;7.914;2023-01-01T16:51:05;28.35;;;9.45;;
64643;SDS011;51056;50.330;7.914;2023-01-01T16:58:06;12.75;;;5.45;;
64643;SDS011;51056;50.330;7.914;2023-01-01T17:01:34;14.20;;;5.68;;
64643;SDS011;51056;50.330;7.914;2023-01-01T17:04:39;13.02;;;3.85;;
64643;SDS011;51056;50.330;7.914;2023-01-01T17:07:48;16.13;;;6.65;;
64643;SDS011;51056;50.330;7.914;2023-01-01T17:11:14;11.93;;;5.88;;
64643;SDS011;51056;50.330;7.914;2023-01-01T17:14:21;10.95;;;4.20;;
64643;SDS011;51056;50.330;7.914;2023-01-01T17:17:32;38.60;;;22.23;;
64643;SDS011;51056;50.330;7.914;2023-01-01T17:20:37;25.20;;;14.73;;
64643;SDS011;51056;50.330;7.914;2023-01-01T17:23:41;13.05;;;6.93;;
64643;SDS011;51056;50.330;7.914;2023-01-01T17:26:49;9.68;;;4.47;;
64643;SDS011;51056;50.330;7.914;2023-01-01T17:29:54;23.20;;;14.30;;
64643;SDS011;51056;50.330;7.914;2023-01-01T17:32:58;13.65;;;6.25;;
64643;SDS011;51056;50.330;7.914;2023-01-01T17:36:04;17.67;;;7.72;;
64643;SDS011;51056;50.330;7.914;2023-01-01T17:39:12;17.42;;;8.00;;
64643;SDS011;51056;50.330;7.914;2023-01-01T17:42:17;9.57;;;4.05;;
64643;SDS011;51056;50.330;7.914;2023-01-01T17:45:25;8.93;;;5.10;;
64643;SDS011;51056;50.330;7.914;2023-01-01T17:48:28;17.50;;;9.80;;
64643;SDS011;51056;50.330;7.914;2023-01-01T17:54:37;20.25;;;8.15;;
64643;SDS011;51056;50.330;7.914;2023-01-01T17:57:43;18.63;;;10.13;;
64643;SDS011;51056;50.330;7.914;2023-01-01T18:01:18;12.68;;;8.60;;
64643;SDS011;51056;50.330;7.914;2023-01-01T18:04:30;21.73;;;12.57;;
64643;SDS011;51056;50.330;7.914;2023-01-01T18:07:39;28.13;;;14.85;;
64643;SDS011;51056;50.330;7.914;2023-01-01T18:13:45;25.77;;;14.75;;
64643;SDS011;51056;50.330;7.914;2023-01-01T18:16:50;38.78;;;18.77;;
64643;SDS011;51056;50.330;7.914;2023-01-01T18:19:57;30.27;;;13.63;;
64643;SDS011;51056;50.330;7.914;2023-01-01T18:23:01;22.80;;;12.13;;
64643;SDS011;51056;50.330;7.914;2023-01-01T18:26:05;15.45;;;6.65;;
64643;SDS011;51056;50.330;7.914;2023-01-01T18:29:10;19.17;;;5.22;;
64643;SDS011;51056;50.330;7.914;2023-01-01T18:32:17;12.77;;;4.35;;
64643;SDS011;51056;50.330;7.914;2023-01-01T18:35:21;11.32;;;4.97;;
64643;SDS011;51056;50.330;7.914;2023-01-01T18:42:18;24.05;;;14.57;;
64643;SDS011;51056;50.330;7.914;2023-01-01T18:45:22;13.90;;;8.32;;
64643;SDS011;51056;50.330;7.914;2023-01-01T18:48:28;11.75;;;7.90;;
64643;SDS011;51056;50.330;7.914;2023-01-01T18:51:31;17.25;;;10.63;;
64643;SDS011;51056;50.330;7.914;2023-01-01T18:54:36;14.00;;;8.10;;
64643;SDS011;51056;50.330;7.914;2023-01-01T18:57:40;16.20;;;7.82;;
64643;SDS011;51056;50.330;7.914;2023-01-01T19:00:52;10.80;;;6.70;;
64643;SDS011;51056;50.330;7.914;2023-01-01T19:03:56;14.88;;;9.45;;
64643;SDS011;51056;50.330;7.914;2023-01-01T19:07:08;18.92;;;11.20;;
64643;SDS011;51056;50.330;7.914;2023-01-01T19:10:13;15.25;;;8.55;;
64643;SDS011;51056;50.330;7.914;2023-01-01T19:16:27;12.77;;;7.95;;
64643;SDS011;51056;50.330;7.914;2023-01-01T19:19:33;18.52;;;11.68;;
64643;SDS011;51056;50.330;7.914;2023-01-01T19:22:41;24.90;;;13.60;;
64643;SDS011;51056;50.330;7.914;2023-01-01T19:31:55;26.60;;;16.23;;
64643;SDS011;51056;50.330;7.914;2023-01-01T19:34:59;24.70;;;17.48;;
64643;SDS011;51056;50.330;7.914;2023-01-01T19:38:04;22.17;;;13.60;;
64643;SDS011;51056;50.330;7.914;2023-01-01T19:41:09;12.77;;;7.63;;
64643;SDS011;51056;50.330;7.914;2023-01-01T19:44:13;18.38;;;6.28;;
64643;SDS011;51056;50.330;7.914;2023-01-01T19:47:17;21.30;;;9.77;;
64643;SDS011;51056;50.330;7.914;2023-01-01T19:50:21;18.98;;;11.00;;
64643;SDS011;51056;50.330;7.914;2023-01-01T19:53:25;21.58;;;12.80;;
64643;SDS011;51056;50.330;7.914;2023-01-01T19:56:28;18.55;;;9.40;;
64643;SDS011;51056;50.330;7.914;2023-01-01T19:59:32;15.48;;;9.27;;
64643;SDS011;51056;50.330;7.914;2023-01-01T20:02:36;14.27;;;6.60;;
64643;SDS011;51056;50.330;7.914;2023-01-01T20:05:39;12.15;;;4.68;;
64643;SDS011;51056;50.330;7.914;2023-01-01T20:11:46;15.40;;;9.27;;
64643;SDS011;51056;50.330;7.914;2023-01-01T20:14:50;15.50;;;9.40;;
64643;SDS011;51056;50.330;7.914;2023-01-01T20:17:55;14.32;;;7.90;;
64643;SDS011;51056;50.330;7.914;2023-01-01T20:20:59;12.38;;;7.38;;
64643;SDS011;51056;50.330;7.914;2023-01-01T20:24:21;8.20;;;3.85;;
64643;SDS011;51056;50.330;7.914;2023-01-01T20:30:29;14.82;;;6.82;;
64643;SDS011;51056;50.330;7.914;2023-01-01T20:33:33;13.68;;;5.25;;
64643;SDS011;51056;50.330;7.914;2023-01-01T20:36:39;11.07;;;4.55;;
64643;SDS011;51056;50.330;7.914;2023-01-01T20:40:06;17.38;;;8.88;;
64643;SDS011;51056;50.330;7.914;2023-01-01T20:43:12;13.82;;;6.72;;
64643;SDS011;51056;50.330;7.914;2023-01-01T20:49:19;8.80;;;4.90;;
64643;SDS011;51056;50.330;7.914;2023-01-01T20:52:23;13.30;;;6.22;;
64643;SDS011;51056;50.330;7.914;2023-01-01T20:55:28;11.30;;;5.18;;
64643;SDS011;51056;50.330;7.914;2023-01-01T20:58:31;10.45;;;3.55;;
64643;SDS011;51056;50.330;7.914;2023-01-01T21:01:36;12.77;;;3.72;;
64643;SDS011;51056;50.330;7.914;2023-01-01T21:04:40;7.20;;;2.83;;
64643;SDS011;51056;50.330;7.914;2023-01-01T21:07:44;25.42;;;13.70;;
64643;SDS011;51056;50.330;7.914;2023-01-01T21:10:48;23.63;;;12.98;;
64643;SDS011;51056;50.330;7.914;2023-01-01T21:19:58;22.88;;;11.80;;
64643;SDS011;51056;50.330;7.914;2023-01-01T21:23:08;19.30;;;7.82;;
64643;SDS011;51056;50.330;7.914;2023-01-01T21:26:25;19.60;;;5.95;;
64643;SDS011;51056;50.330;7.914;2023-01-01T21:29:34;14.93;;;7.00;;
64643;SDS011;51056;50.330;7.914;2023-01-01T21:32:40;15.82;;;7.70;;
64643;SDS011;51056;50.330;7.914;2023-01-01T21:35:47;21.60;;;11.02;;
64643;SDS011;51056;50.330;7.914;2023-01-01T21:38:53;18.23;;;12.35;;
64643;SDS011;51056;50.330;7.914;2023-01-01T21:45:26;24.15;;;11.93;;
64643;SDS011;51056;50.330;7.914;2023-01-01T21:48:52;25.55;;;15.95;;
64643;SDS011;51056;50.330;7.914;2023-01-01T21:52:02;27.73;;;15.23;;
64643;SDS011;51056;50.330;7.914;2023-01-01T21:55:18;23.75;;;12.77;;
64643;SDS011;51056;50.330;7.914;2023-01-01T21:58:35;20.83;;;9.77;;
64643;SDS011;51056;50.330;7.914;2023-01-01T22:05:18;31.83;;;13.85;;
64643;SDS011;51056;50.330;7.914;2023-01-01T22:08:29;28.95;;;19.42;;
64643;SDS011;51056;50.330;7.914;2023-01-01T22:11:35;17.27;;;10.32;;
64643;SDS011;51056;50.330;7.914;2023-01-01T22:14:39;19.40;;;8.82;;
64643;SDS011;51056;50.330;7.914;2023-01-01T22:17:44;11.13;;;4.53;;
64643;SDS011;51056;50.330;7.914;2023-01-01T22:20:48;17.00;;;7.72;;
64643;SDS011;51056;50.330;7.914;2023-01-01T22:23:53;12.60;;;7.25;;
64643;SDS011;51056;50.330;7.914;2023-01-01T22:27:22;15.10;;;7.82;;
64643;SDS011;51056;50.330;7.914;2023-01-01T22:30:36;23.02;;;14.13;;
64643;SDS011;51056;50.330;7.914;2023-01-01T22:33:43;27.63;;;14.25;;
64643;SDS011;51056;50.330;7.914;2023-01-01T22:36:49;25.25;;;12.80;;
64643;SDS011;51056;50.330;7.914;2023-01-01T22:39:53;34.75;;;19.48;;
64643;SDS011;51056;50.330;7.914;2023-01-01T22:49:20;22.42;;;13.82;;
64643;SDS011;51056;50.330;7.914;2023-01-01T22:52:26;21.35;;;10.93;;
64643;SDS011;51056;50.330;7.914;2023-01-01T22:55:30;18.95;;;10.38;;
64643;SDS011;51056;50.330;7.914;2023-01-01T22:58:33;18.90;;;10.02;;
64643;SDS011;51056;50.330;7.914;2023-01-01T23:04:39;19.43;;;13.53;;
64643;SDS011;51056;50.330;7.914;2023-01-01T23:07:43;19.38;;;13.05;;
64643;SDS011;51056;50.330;7.914;2023-01-01T23:10:47;18.88;;;11.55;;
64643;SDS011;51056;50.330;7.914;2023-01-01T23:13:50;16.38;;;10.68;;
64643;SDS011;51056;50.330;7.914;2023-01-01T23:17:12;22.35;;;9.23;;
64643;SDS011;51056;50.330;7.914;2023-01-01T23:20:15;18.98;;;8.77;;
64643;SDS011;51056;50.330;7.914;2023-01-01T23:23:19;19.08;;;8.82;;
64643;SDS011;51056;50.330;7.914;2023-01-01T23:26:22;14.50;;;7.47;;
64643;SDS011;51056;50.330;7.914;2023-01-01T23:29:28;17.23;;;7.93;;
64643;SDS011;51056;50.330;7.914;2023-01-01T23:32:33;15.35;;;7.47;;
64643;SDS011;51056;50.330;7.914;2023-01-01T23:35:37;15.07;;;8.02;;
64643;SDS011;51056;50.330;7.914;2023-01-01T23:38:41;16.20;;;7.68;;
64643;SDS011;51056;50.330;7.914;2023-01-01T23:41:45;22.52;;;9.18;;
64643;SDS011;51056;50.330;7.914;2023-01-01T23:44:48;14.90;;;8.30;;
64643;SDS011;51056;50.330;7.914;2023-01-01T23:47:52;23.67;;;11.73;;
64643;SDS011;51056;50.330;7.914;2023-01-01T23:54:00;17.88;;;8.80;;
